createdAt,value
2023-05-10T00:00:17.129Z,75.01
2023-05-10T00:01:16.921Z,75.31
2023-05-10T00:02:24.997Z,74.94
2023-05-10T00:03:17.107Z,75.15
2023-05-10T00:04:16.988Z,76.27
2023-05-10T00:05:17.023Z,75.96
2023-05-10T00:06:16.881Z,75.66
2023-05-10T00:07:16.851Z,75.96
2023-05-10T00:08:25.568Z,75.86
2023-05-10T00:09:16.905Z,75.96
2023-05-10T00:10:17.119Z,75.96
2023-05-10T00:11:16.846Z,75.76
2023-05-10T00:12:16.896Z,75.86
2023-05-10T00:13:16.881Z,76.07
2023-05-10T00:14:16.928Z,76.07
2023-05-10T00:15:16.821Z,75.35
2023-05-10T00:16:16.804Z,75.76
2023-05-10T00:17:16.763Z,75.11
2023-05-10T00:18:16.739Z,75.76
2023-05-10T00:19:16.735Z,75.86
2023-05-10T00:20:17.022Z,75.76
2023-05-10T00:21:16.716Z,76.37
2023-05-10T00:22:16.702Z,75.96
2023-05-10T00:23:16.668Z,75.86
2023-05-10T00:24:16.670Z,75.86
2023-05-10T00:25:16.669Z,76.07
2023-05-10T00:26:16.656Z,76.37
2023-05-10T00:27:16.631Z,75.49
2023-05-10T00:28:16.608Z,75.66
2023-05-10T00:29:16.600Z,75.96
2023-05-10T00:30:16.872Z,75.90
2023-05-10T00:31:16.614Z,76.51
2023-05-10T00:32:16.747Z,76.20
2023-05-10T00:33:16.602Z,76.51
2023-05-10T00:34:16.541Z,76.72
2023-05-10T00:35:16.560Z,76.31
2023-05-10T00:36:16.527Z,75.86
2023-05-10T00:37:16.512Z,76.17
2023-05-10T00:38:16.519Z,75.45
2023-05-10T00:39:16.498Z,75.66
2023-05-10T00:40:16.742Z,75.96
2023-05-10T00:41:16.505Z,76.51
2023-05-10T00:42:16.447Z,76.37
2023-05-10T00:43:16.486Z,76.62
2023-05-10T00:44:16.461Z,76.62
2023-05-10T00:45:16.417Z,76.41
2023-05-10T00:46:16.457Z,76.51
2023-05-10T00:47:16.435Z,76.72
2023-05-10T00:48:16.403Z,76.41
2023-05-10T00:49:16.391Z,76.62
2023-05-10T00:50:16.782Z,76.51
2023-05-10T00:51:16.349Z,77.03
2023-05-10T00:52:16.367Z,76.51
2023-05-10T00:53:16.334Z,76.72
2023-05-10T00:54:16.333Z,77.13
2023-05-10T00:55:16.304Z,76.51
2023-05-10T00:56:16.360Z,76.92
2023-05-10T00:57:16.302Z,77.44
2023-05-10T00:58:16.270Z,77.74
2023-05-10T00:59:16.260Z,76.92
2023-05-10T01:00:16.483Z,76.72
2023-05-10T01:01:16.279Z,77.03
2023-05-10T01:02:16.314Z,77.84
2023-05-10T01:03:16.330Z,77.64
2023-05-10T01:04:16.209Z,77.78
2023-05-10T01:05:17.139Z,77.58
2023-05-10T01:06:16.211Z,77.68
2023-05-10T01:07:16.168Z,77.88
2023-05-10T01:08:16.176Z,77.47
2023-05-10T01:09:16.149Z,77.78
2023-05-10T01:10:16.523Z,77.68
2023-05-10T01:11:16.124Z,77.98
2023-05-10T01:12:16.242Z,77.78
2023-05-10T01:13:16.125Z,77.68
2023-05-10T01:14:16.105Z,77.88
2023-05-10T01:15:16.076Z,77.88
2023-05-10T01:16:16.113Z,77.88
2023-05-10T01:17:16.075Z,77.68
2023-05-10T01:18:16.046Z,77.44
2023-05-10T01:19:16.058Z,77.33
2023-05-10T01:20:16.398Z,77.33
2023-05-10T01:21:16.016Z,77.78
2023-05-10T01:22:16.027Z,77.68
2023-05-10T01:23:16.018Z,77.47
2023-05-10T01:24:16.023Z,77.78
2023-05-10T01:25:16.005Z,77.78
2023-05-10T01:26:16.068Z,77.78
2023-05-10T01:27:15.997Z,77.98
2023-05-10T01:28:15.960Z,77.98
2023-05-10T01:29:15.950Z,78.19
2023-05-10T01:30:16.338Z,78.19
2023-05-10T01:31:16.005Z,78.81
2023-05-10T01:32:15.910Z,78.64
2023-05-10T01:33:16.041Z,78.64
2023-05-10T01:34:15.859Z,77.98
2023-05-10T01:35:15.869Z,78.64
2023-05-10T01:36:15.841Z,78.23
2023-05-10T01:37:15.830Z,78.39
2023-05-10T01:38:15.838Z,78.19
2023-05-10T01:39:15.807Z,77.58
2023-05-10T01:40:15.969Z,78.29
2023-05-10T01:41:15.787Z,78.39
2023-05-10T01:42:15.766Z,78.09
2023-05-10T01:43:15.777Z,78.29
2023-05-10T01:44:15.782Z,78.81
2023-05-10T01:45:15.735Z,78.39
2023-05-10T01:46:15.756Z,78.05
2023-05-10T01:47:15.715Z,78.09
2023-05-10T01:48:15.724Z,77.74
2023-05-10T01:49:15.693Z,78.19
2023-05-10T01:50:15.918Z,78.39
2023-05-10T01:51:15.684Z,77.98
2023-05-10T01:52:15.680Z,78.39
2023-05-10T01:53:15.656Z,78.29
2023-05-10T01:54:15.673Z,78.70
2023-05-10T01:55:15.640Z,78.70
2023-05-10T01:56:15.619Z,78.53
2023-05-10T01:57:15.597Z,79.25
2023-05-10T01:58:15.579Z,79.05
2023-05-10T01:59:15.590Z,78.85
2023-05-10T02:00:15.961Z,79.56
2023-05-10T02:01:15.664Z,79.56
2023-05-10T02:02:15.551Z,79.56
2023-05-10T02:03:15.605Z,79.15
2023-05-10T02:04:15.540Z,79.87
2023-05-10T02:05:15.508Z,79.97
2023-05-10T02:06:15.495Z,79.66
2023-05-10T02:07:15.501Z,80.07
2023-05-10T02:08:15.509Z,80.32
2023-05-10T02:09:15.453Z,80.63
2023-05-10T02:10:15.774Z,80.21
2023-05-10T02:11:15.439Z,80.18
2023-05-10T02:12:15.416Z,80.63
2023-05-10T02:13:15.474Z,80.52
2023-05-10T02:14:15.418Z,80.63
2023-05-10T02:15:15.407Z,80.21
2023-05-10T02:16:22.449Z,80.21
2023-05-10T02:17:15.366Z,80.73
2023-05-10T02:18:15.368Z,80.21
2023-05-10T02:19:15.364Z,80.52
2023-05-10T02:20:15.724Z,80.58
2023-05-10T02:21:15.319Z,80.58
2023-05-10T02:22:15.321Z,80.07
2023-05-10T02:23:15.319Z,79.66
2023-05-10T02:24:15.281Z,80.07
2023-05-10T02:25:15.293Z,79.87
2023-05-10T02:26:15.282Z,79.60
2023-05-10T02:27:15.265Z,80.18
2023-05-10T02:28:15.301Z,80.01
2023-05-10T02:29:15.224Z,80.73
2023-05-10T02:30:15.357Z,80.73
2023-05-10T02:31:15.206Z,80.73
2023-05-10T02:32:15.283Z,80.32
2023-05-10T02:33:15.213Z,80.32
2023-05-10T02:34:15.183Z,80.21
2023-05-10T02:35:15.174Z,80.32
2023-05-10T02:36:15.152Z,80.11
2023-05-10T02:37:15.167Z,80.42
2023-05-10T02:38:15.136Z,80.63
2023-05-10T02:39:15.176Z,80.42
2023-05-10T02:40:15.352Z,80.21
2023-05-10T02:41:15.112Z,80.42
2023-05-10T02:42:15.078Z,80.83
2023-05-10T02:43:15.070Z,80.52
2023-05-10T02:44:15.059Z,80.63
2023-05-10T02:45:15.081Z,80.63
2023-05-10T02:46:16.251Z,80.42
2023-05-10T02:47:15.042Z,80.42
2023-05-10T02:48:15.073Z,80.52
2023-05-10T02:49:15.016Z,80.42
2023-05-10T02:50:15.239Z,80.63
2023-05-10T02:51:14.992Z,80.77
2023-05-10T02:52:14.967Z,80.66
2023-05-10T02:53:14.964Z,81.18
2023-05-10T02:54:14.944Z,80.32
2023-05-10T02:55:14.973Z,81.07
2023-05-10T02:56:14.919Z,80.97
2023-05-10T02:57:14.924Z,81.59
2023-05-10T02:58:14.898Z,81.38
2023-05-10T02:59:14.884Z,81.07
2023-05-10T03:00:15.131Z,81.38
2023-05-10T03:01:14.940Z,81.59
2023-05-10T03:02:14.860Z,81.38
2023-05-10T03:03:14.853Z,81.62
2023-05-10T03:04:15.445Z,81.90
2023-05-10T03:05:15.278Z,81.90
2023-05-10T03:06:14.806Z,81.69
2023-05-10T03:07:14.797Z,81.90
2023-05-10T03:08:14.789Z,81.90
2023-05-10T03:09:14.770Z,81.48
2023-05-10T03:10:15.104Z,81.48
2023-05-10T03:11:14.796Z,81.69
2023-05-10T03:12:14.741Z,81.48
2023-05-10T03:13:14.845Z,81.48
2023-05-10T03:14:14.727Z,81.59
2023-05-10T03:15:14.719Z,80.97
2023-05-10T03:16:14.765Z,81.59
2023-05-10T03:17:14.686Z,81.18
2023-05-10T03:18:14.701Z,81.07
2023-05-10T03:19:14.660Z,80.83
2023-05-10T03:20:15.278Z,80.97
2023-05-10T03:21:14.635Z,80.77
2023-05-10T03:22:14.625Z,80.46
2023-05-10T03:23:14.647Z,81.07
2023-05-10T03:24:14.600Z,81.38
2023-05-10T03:25:14.592Z,81.18
2023-05-10T03:26:14.592Z,81.18
2023-05-10T03:27:14.591Z,80.87
2023-05-10T03:28:14.575Z,81.28
2023-05-10T03:29:14.547Z,81.18
2023-05-10T03:30:14.800Z,81.28
2023-05-10T03:31:14.607Z,81.59
2023-05-10T03:32:14.524Z,81.48
2023-05-10T03:33:14.498Z,81.59
2023-05-10T03:34:14.505Z,81.38
2023-05-10T03:35:14.497Z,81.59
2023-05-10T03:36:14.465Z,81.93
2023-05-10T03:37:14.475Z,81.48
2023-05-10T03:38:14.474Z,81.59
2023-05-10T03:39:14.430Z,81.18
2023-05-10T03:40:14.465Z,81.38
2023-05-10T03:41:14.425Z,81.59
2023-05-10T03:42:14.417Z,81.79
2023-05-10T03:43:14.409Z,81.48
2023-05-10T03:44:14.387Z,81.18
2023-05-10T03:45:14.368Z,81.38
2023-05-10T03:46:14.406Z,81.79
2023-05-10T03:47:14.337Z,81.79
2023-05-10T03:48:14.335Z,81.59
2023-05-10T03:49:14.338Z,81.52
2023-05-10T03:50:14.386Z,81.07
2023-05-10T03:51:14.321Z,81.59
2023-05-10T03:52:14.302Z,81.69
2023-05-10T03:53:14.284Z,81.90
2023-05-10T03:54:14.261Z,82.00
2023-05-10T03:55:14.324Z,81.79
2023-05-10T03:56:14.271Z,81.90
2023-05-10T03:57:14.233Z,81.38
2023-05-10T03:58:14.223Z,81.79
2023-05-10T03:59:14.251Z,81.79
2023-05-10T04:00:14.333Z,81.79
2023-05-10T04:01:14.177Z,81.79
2023-05-10T04:02:14.224Z,81.79
2023-05-10T04:03:14.354Z,82.31
2023-05-10T04:04:14.186Z,81.69
2023-05-10T04:05:14.131Z,82.00
2023-05-10T04:06:14.226Z,81.79
2023-05-10T04:07:14.119Z,81.69
2023-05-10T04:08:14.135Z,81.59
2023-05-10T04:09:14.106Z,81.24
2023-05-10T04:10:14.337Z,81.24
2023-05-10T04:11:14.084Z,81.24
2023-05-10T04:12:14.052Z,81.14
2023-05-10T04:13:14.131Z,81.55
2023-05-10T04:14:14.044Z,81.04
2023-05-10T04:15:14.104Z,81.86
2023-05-10T04:16:14.072Z,81.55
2023-05-10T04:17:14.040Z,81.65
2023-05-10T04:18:14.013Z,81.45
2023-05-10T04:19:13.972Z,81.04
2023-05-10T04:20:14.047Z,80.93
2023-05-10T04:21:13.959Z,81.45
2023-05-10T04:22:13.941Z,81.14
2023-05-10T04:23:13.976Z,80.83
2023-05-10T04:24:13.918Z,80.93
2023-05-10T04:25:13.904Z,81.24
2023-05-10T04:26:13.903Z,81.00
2023-05-10T04:27:16.286Z,81.20
2023-05-10T04:28:13.871Z,80.69
2023-05-10T04:29:13.886Z,80.49
2023-05-10T04:30:13.940Z,80.58
2023-05-10T04:31:13.916Z,80.79
2023-05-10T04:32:13.864Z,80.55
2023-05-10T04:33:13.811Z,80.55
2023-05-10T04:34:13.802Z,80.24
2023-05-10T04:35:13.809Z,80.04
2023-05-10T04:36:13.775Z,80.55
2023-05-10T04:37:13.765Z,80.49
2023-05-10T04:38:13.767Z,80.18
2023-05-10T04:39:13.779Z,80.55
2023-05-10T04:40:13.857Z,80.45
2023-05-10T04:41:13.712Z,80.14
2023-05-10T04:42:13.704Z,79.93
2023-05-10T04:43:13.743Z,80.55
2023-05-10T04:44:13.701Z,80.51
2023-05-10T04:45:13.708Z,80.24
2023-05-10T04:46:13.687Z,79.90
2023-05-10T04:47:13.672Z,80.41
2023-05-10T04:48:13.657Z,80.21
2023-05-10T04:49:13.635Z,79.69
2023-05-10T04:50:13.699Z,80.21
2023-05-10T04:51:13.603Z,79.59
2023-05-10T04:52:13.593Z,79.69
2023-05-10T04:53:15.878Z,79.38
2023-05-10T04:54:13.571Z,79.08
2023-05-10T04:55:13.554Z,79.08
2023-05-10T04:56:13.561Z,78.16
2023-05-10T04:57:13.552Z,78.56
2023-05-10T04:58:13.534Z,78.53
2023-05-10T04:59:13.512Z,78.05
2023-05-10T05:00:13.525Z,78.42
2023-05-10T05:01:13.509Z,78.16
2023-05-10T05:02:13.488Z,78.12
2023-05-10T05:03:13.731Z,77.71
2023-05-10T05:04:13.460Z,77.61
2023-05-10T05:05:13.450Z,78.46
2023-05-10T05:06:13.438Z,78.25
2023-05-10T05:07:13.447Z,78.02
2023-05-10T05:08:13.445Z,78.63
2023-05-10T05:09:13.416Z,78.22
2023-05-10T05:10:13.389Z,77.91
2023-05-10T05:11:13.378Z,77.61
2023-05-10T05:12:13.366Z,78.02
2023-05-10T05:13:13.420Z,78.02
2023-05-10T05:14:13.348Z,78.28
2023-05-10T05:15:13.329Z,77.98
2023-05-10T05:16:13.354Z,77.57
2023-05-10T05:17:13.310Z,77.29
2023-05-10T05:18:13.383Z,77.67
2023-05-10T05:19:13.309Z,78.28
2023-05-10T05:20:13.276Z,78.08
2023-05-10T05:21:13.280Z,77.47
2023-05-10T05:22:13.263Z,77.77
2023-05-10T05:23:13.239Z,77.77
2023-05-10T05:24:13.241Z,77.77
2023-05-10T05:25:13.268Z,78.05
2023-05-10T05:26:13.226Z,77.87
2023-05-10T05:27:13.216Z,77.73
2023-05-10T05:28:13.187Z,78.25
2023-05-10T05:29:13.174Z,77.23
2023-05-10T05:30:13.181Z,77.23
2023-05-10T05:31:13.216Z,77.53
2023-05-10T05:32:13.234Z,77.19
2023-05-10T05:33:13.123Z,76.31
2023-05-10T05:34:13.114Z,75.69
2023-05-10T05:35:13.118Z,76.40
2023-05-10T05:36:13.093Z,77.29
2023-05-10T05:37:13.087Z,77.60
2023-05-10T05:38:13.097Z,77.70
2023-05-10T05:39:13.068Z,77.50
2023-05-10T05:40:13.060Z,76.43
2023-05-10T05:41:13.049Z,76.23
2023-05-10T05:42:13.020Z,75.86
2023-05-10T05:43:13.046Z,76.13
2023-05-10T05:44:13.017Z,75.21
2023-05-10T05:45:12.994Z,75.52
2023-05-10T05:46:13.047Z,76.03
2023-05-10T05:47:12.961Z,75.68
2023-05-10T05:48:12.950Z,75.62
2023-05-10T05:49:12.947Z,75.52
2023-05-10T05:50:12.933Z,75.62
2023-05-10T05:51:12.953Z,75.31
2023-05-10T05:52:12.908Z,74.90
2023-05-10T05:53:12.913Z,75.21
2023-05-10T05:54:12.882Z,75.59
2023-05-10T05:55:12.883Z,75.68
2023-05-10T05:56:12.861Z,75.68
2023-05-10T05:57:12.845Z,74.87
2023-05-10T05:58:12.867Z,74.26
2023-05-10T05:59:12.834Z,75.89
2023-05-10T06:00:12.824Z,75.68
2023-05-10T06:01:12.819Z,74.35
2023-05-10T06:02:12.853Z,74.35
2023-05-10T06:03:12.864Z,74.15
2023-05-10T06:04:13.777Z,74.15
2023-05-10T06:05:12.775Z,75.38
2023-05-10T06:06:12.748Z,76.16
2023-05-10T06:07:12.778Z,75.51
2023-05-10T06:08:12.723Z,74.39
2023-05-10T06:09:12.714Z,74.29
2023-05-10T06:10:12.699Z,75.48
2023-05-10T06:11:12.709Z,74.87
2023-05-10T06:12:12.709Z,75.54
2023-05-10T06:13:12.732Z,74.22
2023-05-10T06:14:12.667Z,74.42
2023-05-10T06:15:12.657Z,73.77
2023-05-10T06:16:12.676Z,73.27
2023-05-10T06:17:12.635Z,73.36
2023-05-10T06:18:12.652Z,73.16
2023-05-10T06:19:12.617Z,72.75
2023-05-10T06:20:12.602Z,74.35
2023-05-10T06:21:12.588Z,73.74
2023-05-10T06:22:12.587Z,72.58
2023-05-10T06:23:12.690Z,71.87
2023-05-10T06:24:12.594Z,72.62
2023-05-10T06:25:12.528Z,72.89
2023-05-10T06:26:12.518Z,72.89
2023-05-10T06:27:12.509Z,71.87
2023-05-10T06:28:12.501Z,71.97
2023-05-10T06:29:12.507Z,71.46
2023-05-10T06:30:13.580Z,72.00
2023-05-10T06:31:12.500Z,71.87
2023-05-10T06:32:12.740Z,71.87
2023-05-10T06:33:12.452Z,71.87
2023-05-10T06:34:12.446Z,72.08
2023-05-10T06:35:12.416Z,72.04
2023-05-10T06:36:12.406Z,72.04
2023-05-10T06:37:12.410Z,72.14
2023-05-10T06:38:12.378Z,71.50
2023-05-10T06:39:12.408Z,72.72
2023-05-10T06:40:12.373Z,71.16
2023-05-10T06:41:12.349Z,69.43
2023-05-10T06:42:12.339Z,69.73
2023-05-10T06:43:12.390Z,70.21
2023-05-10T06:44:12.317Z,68.79
2023-05-10T06:45:12.304Z,69.02
2023-05-10T06:46:12.335Z,69.26
2023-05-10T06:47:12.275Z,70.17
2023-05-10T06:48:12.341Z,71.06
2023-05-10T06:49:12.309Z,70.86
2023-05-10T06:50:12.311Z,70.82
2023-05-10T06:51:12.243Z,71.12
2023-05-10T06:52:12.233Z,70.89
2023-05-10T06:53:12.210Z,70.45
2023-05-10T06:54:12.241Z,70.35
2023-05-10T06:55:12.224Z,69.64
2023-05-10T06:56:12.185Z,68.99
2023-05-10T06:57:23.248Z,68.69
2023-05-10T06:58:13.152Z,68.79
2023-05-10T06:59:12.207Z,68.59
2023-05-10T07:00:12.161Z,68.99
2023-05-10T07:01:12.201Z,68.79
2023-05-10T07:02:12.327Z,67.50
2023-05-10T07:03:12.302Z,68.79
2023-05-10T07:04:12.095Z,68.82
2023-05-10T07:05:12.066Z,68.69
2023-05-10T07:06:21.687Z,70.31
2023-05-10T07:07:13.052Z,69.47
2023-05-10T07:08:12.044Z,67.71
2023-05-10T07:09:12.028Z,67.81
2023-05-10T07:10:12.041Z,69.30
2023-05-10T07:11:12.047Z,67.34
2023-05-10T07:12:14.169Z,66.23
2023-05-10T07:13:12.118Z,67.21
2023-05-10T07:14:11.990Z,65.89
2023-05-10T07:15:11.976Z,65.11
2023-05-10T07:16:11.996Z,66.13
2023-05-10T07:17:12.040Z,67.34
2023-05-10T07:18:12.074Z,64.91
2023-05-10T07:19:11.909Z,65.34
2023-05-10T07:20:11.928Z,66.29
2023-05-10T07:21:11.951Z,68.12
2023-05-10T07:22:11.877Z,69.03
2023-05-10T07:23:11.892Z,69.30
2023-05-10T07:24:11.872Z,67.07
2023-05-10T07:25:11.862Z,65.91
2023-05-10T07:26:11.847Z,67.77
2023-05-10T07:27:11.845Z,69.20
2023-05-10T07:28:11.809Z,69.37
2023-05-10T07:29:11.819Z,69.13
2023-05-10T07:30:11.799Z,66.80
2023-05-10T07:31:11.795Z,67.00
2023-05-10T07:32:11.820Z,66.90
2023-05-10T07:33:11.834Z,67.54
2023-05-10T07:34:11.749Z,69.23
2023-05-10T07:35:11.747Z,68.73
2023-05-10T07:36:11.713Z,68.01
2023-05-10T07:37:11.740Z,66.12
2023-05-10T07:38:11.700Z,67.57
2023-05-10T07:39:14.495Z,68.18
2023-05-10T07:40:12.687Z,68.59
2023-05-10T07:41:14.491Z,66.96
2023-05-10T07:42:11.644Z,67.57
2023-05-10T07:43:11.681Z,68.11
2023-05-10T07:44:11.653Z,68.82
2023-05-10T07:45:11.620Z,68.85
2023-05-10T07:46:11.639Z,69.23
2023-05-10T07:47:11.610Z,68.92
2023-05-10T07:48:11.576Z,68.11
2023-05-10T07:49:11.589Z,68.82
2023-05-10T07:50:11.577Z,69.02
2023-05-10T07:51:11.632Z,69.13
2023-05-10T07:52:11.547Z,68.92
2023-05-10T07:53:11.532Z,69.13
2023-05-10T07:54:11.534Z,69.13
2023-05-10T07:55:11.493Z,69.64
2023-05-10T07:56:11.515Z,69.40
2023-05-10T07:57:11.482Z,69.30
2023-05-10T07:58:11.459Z,68.18
2023-05-10T07:59:12.826Z,68.99
2023-05-10T08:00:11.448Z,67.64
2023-05-10T08:01:11.544Z,67.97
2023-05-10T08:02:11.462Z,69.47
2023-05-10T08:03:11.551Z,68.79
2023-05-10T08:04:11.428Z,67.67
2023-05-10T08:05:11.524Z,69.02
2023-05-10T08:07:30.583Z,68.82
2023-05-10T08:08:30.270Z,68.82
2023-05-10T08:09:30.529Z,70.55
2023-05-10T08:10:30.327Z,71.12
2023-05-10T08:11:30.352Z,68.92
2023-05-10T08:12:31.297Z,68.89
2023-05-10T08:13:37.751Z,68.66
2023-05-10T08:14:30.448Z,69.78
2023-05-10T08:15:30.185Z,69.03
2023-05-10T08:16:30.313Z,68.73
2023-05-10T08:17:30.189Z,67.47
2023-05-10T08:18:30.197Z,66.77
2023-05-10T08:19:30.224Z,68.56
2023-05-10T08:20:30.125Z,66.77
2023-05-10T08:21:30.129Z,67.10
2023-05-10T08:22:30.109Z,67.54
2023-05-10T08:23:30.117Z,68.08
2023-05-10T08:24:30.089Z,69.13
2023-05-10T08:25:30.066Z,71.87
2023-05-10T08:26:30.086Z,70.52
2023-05-10T08:27:30.045Z,71.09
2023-05-10T08:28:30.035Z,69.95
2023-05-10T08:29:32.822Z,68.83
2023-05-10T08:30:31.036Z,68.62
2023-05-10T08:31:30.040Z,68.73
2023-05-10T08:32:30.055Z,70.32
2023-05-10T08:33:29.978Z,70.08
2023-05-10T08:34:30.028Z,67.34
2023-05-10T08:35:29.974Z,68.52
2023-05-10T08:36:29.986Z,68.52
2023-05-10T08:37:29.931Z,67.28
2023-05-10T08:38:29.973Z,66.57
2023-05-10T08:39:30.919Z,66.57
2023-05-10T08:40:29.922Z,65.15
2023-05-10T08:41:29.914Z,66.19
2023-05-10T08:42:29.878Z,68.73
2023-05-10T08:43:29.880Z,67.51
2023-05-10T08:44:29.859Z,66.80
2023-05-10T08:45:29.866Z,67.61
2023-05-10T08:46:29.916Z,68.63
2023-05-10T08:47:29.858Z,68.60
2023-05-10T08:48:29.830Z,68.40
2023-05-10T08:49:29.828Z,68.29
2023-05-10T08:50:29.796Z,67.58
2023-05-10T08:51:29.776Z,67.68
2023-05-10T08:52:29.772Z,66.88
2023-05-10T08:53:29.918Z,68.40
2023-05-10T08:54:29.769Z,67.18
2023-05-10T08:55:29.750Z,66.03
2023-05-10T08:56:29.731Z,66.16
2023-05-10T08:57:29.710Z,66.27
2023-05-10T08:58:29.732Z,66.67
2023-05-10T08:59:29.790Z,66.50
2023-05-10T09:00:29.719Z,66.67
2023-05-10T09:01:29.783Z,67.21
2023-05-10T09:02:29.758Z,67.21
2023-05-10T09:03:29.666Z,65.89
2023-05-10T09:04:29.739Z,65.39
2023-05-10T09:05:29.639Z,67.44
2023-05-10T09:06:29.682Z,67.41
2023-05-10T09:07:29.635Z,66.70
2023-05-10T09:08:29.641Z,67.03
2023-05-10T09:09:29.605Z,67.65
2023-05-10T09:10:29.572Z,66.66
2023-05-10T09:11:29.554Z,67.44
2023-05-10T09:12:29.545Z,68.66
2023-05-10T09:13:29.557Z,68.76
2023-05-10T09:14:29.576Z,70.08
2023-05-10T09:15:29.551Z,69.40
2023-05-10T09:16:29.582Z,69.37
2023-05-10T09:17:29.509Z,69.78
2023-05-10T09:18:29.597Z,69.67
2023-05-10T09:19:29.467Z,69.20
2023-05-10T09:20:29.456Z,69.87
2023-05-10T09:21:29.474Z,69.78
2023-05-10T09:22:29.437Z,68.99
2023-05-10T09:23:29.443Z,70.08
2023-05-10T09:24:29.407Z,69.98
2023-05-10T09:25:29.404Z,68.66
2023-05-10T09:26:29.403Z,70.79
2023-05-10T09:27:29.379Z,71.09
2023-05-10T09:28:29.384Z,70.35
2023-05-10T09:29:29.360Z,70.45
2023-05-10T09:30:29.362Z,70.42
2023-05-10T09:31:29.430Z,70.72
2023-05-10T09:32:29.392Z,71.84
2023-05-10T09:33:29.311Z,71.03
2023-05-10T09:34:29.315Z,70.42
2023-05-10T09:35:29.989Z,70.83
2023-05-10T09:36:29.276Z,70.69
2023-05-10T09:37:29.303Z,69.78
2023-05-10T09:38:29.288Z,68.87
2023-05-10T09:39:29.241Z,68.87
2023-05-10T09:40:29.229Z,69.13
2023-05-10T09:41:29.230Z,69.44
2023-05-10T09:42:29.228Z,68.43
2023-05-10T09:43:29.201Z,68.73
2023-05-10T09:44:29.195Z,68.32
2023-05-10T09:45:29.173Z,67.24
2023-05-10T09:46:29.647Z,68.35
2023-05-10T09:47:29.239Z,69.27
2023-05-10T09:48:29.141Z,68.05
2023-05-10T09:49:29.138Z,68.39
2023-05-10T09:50:29.178Z,68.59
2023-05-10T09:51:29.105Z,69.30
2023-05-10T09:52:29.101Z,70.42
2023-05-10T09:53:29.085Z,70.62
2023-05-10T09:54:29.077Z,67.47
2023-05-10T09:55:29.084Z,68.70
2023-05-10T09:56:29.067Z,69.71
2023-05-10T09:57:29.051Z,68.90
2023-05-10T09:58:29.033Z,69.57
2023-05-10T09:59:29.021Z,71.60
2023-05-10T10:00:29.033Z,71.67
2023-05-10T10:01:29.033Z,72.04
2023-05-10T10:02:29.074Z,71.40
2023-05-10T10:03:30.349Z,68.87
2023-05-10T10:04:29.061Z,69.85
2023-05-10T10:05:28.950Z,68.43
2023-05-10T10:06:30.480Z,68.50
2023-05-10T10:07:28.950Z,68.87
2023-05-10T10:08:28.947Z,66.85
2023-05-10T10:09:28.921Z,65.84
2023-05-10T10:10:28.905Z,66.64
2023-05-10T10:11:28.903Z,66.24
2023-05-10T10:12:28.878Z,66.85
2023-05-10T10:13:28.869Z,66.55
2023-05-10T10:14:28.867Z,66.35
2023-05-10T10:15:28.847Z,67.25
2023-05-10T10:16:28.903Z,66.64
2023-05-10T10:17:28.912Z,65.84
2023-05-10T10:18:28.881Z,65.84
2023-05-10T10:19:28.961Z,66.35
2023-05-10T10:20:28.788Z,65.13
2023-05-10T10:21:28.775Z,66.04
2023-05-10T10:22:28.826Z,66.24
2023-05-10T10:23:28.799Z,65.73
2023-05-10T10:24:28.743Z,65.26
2023-05-10T10:25:28.728Z,65.43
2023-05-10T10:26:28.756Z,65.47
2023-05-10T10:27:28.705Z,64.79
2023-05-10T10:28:28.697Z,65.19
2023-05-10T10:29:28.683Z,66.71
2023-05-10T10:30:28.689Z,67.01
2023-05-10T10:31:28.745Z,66.91
2023-05-10T10:32:28.702Z,67.11
2023-05-10T10:33:29.249Z,66.41
2023-05-10T10:34:28.642Z,66.17
2023-05-10T10:35:28.616Z,66.58
2023-05-10T10:36:28.613Z,66.47
2023-05-10T10:37:28.620Z,68.30
2023-05-10T10:38:28.623Z,68.80
2023-05-10T10:39:28.572Z,69.21
2023-05-10T10:40:28.581Z,68.80
2023-05-10T10:41:28.582Z,67.62
2023-05-10T10:42:28.558Z,67.82
2023-05-10T10:43:28.556Z,68.43
2023-05-10T10:44:28.543Z,68.73
2023-05-10T10:45:28.511Z,69.54
2023-05-10T10:46:28.515Z,68.43
2023-05-10T10:47:28.509Z,67.32
2023-05-10T10:48:28.506Z,68.53
2023-05-10T10:49:28.485Z,68.53
2023-05-10T10:50:28.449Z,68.63
2023-05-10T10:51:28.459Z,68.43
2023-05-10T10:52:28.428Z,68.53
2023-05-10T10:53:28.430Z,68.53
2023-05-10T10:54:28.445Z,67.32
2023-05-10T10:55:28.418Z,68.23
2023-05-10T10:56:28.398Z,68.46
2023-05-10T10:57:28.377Z,69.78
2023-05-10T10:58:28.378Z,70.08
2023-05-10T10:59:28.353Z,70.59
2023-05-10T11:00:28.400Z,69.78
2023-05-10T11:01:28.378Z,69.92
2023-05-10T11:02:30.074Z,69.51
2023-05-10T11:03:28.317Z,70.72
2023-05-10T11:04:28.378Z,69.81
2023-05-10T11:05:28.308Z,70.62
2023-05-10T11:06:28.268Z,71.84
2023-05-10T11:07:28.260Z,71.03
2023-05-10T11:08:28.250Z,70.72
2023-05-10T11:09:28.262Z,70.72
2023-05-10T11:10:28.246Z,71.44
2023-05-10T11:11:28.238Z,71.94
2023-05-10T11:12:28.201Z,71.47
2023-05-10T11:13:28.196Z,71.97
2023-05-10T11:14:28.203Z,71.67
2023-05-10T11:15:28.190Z,72.28
2023-05-10T11:16:28.222Z,72.38
2023-05-10T11:17:28.224Z,71.88
2023-05-10T11:18:28.171Z,71.88
2023-05-10T11:19:28.156Z,71.97
2023-05-10T11:20:28.108Z,71.97
2023-05-10T11:21:28.098Z,71.77
2023-05-10T11:22:28.086Z,71.47
2023-05-10T11:23:28.307Z,72.68
2023-05-10T11:24:28.081Z,71.77
2023-05-10T11:25:28.062Z,72.28
2023-05-10T11:26:28.090Z,72.99
2023-05-10T11:27:30.179Z,72.99
2023-05-10T11:28:28.033Z,71.70
2023-05-10T11:29:28.009Z,72.11
2023-05-10T11:30:27.992Z,72.08
2023-05-10T11:31:28.156Z,71.50
2023-05-10T11:32:28.016Z,71.50
2023-05-10T11:33:27.976Z,72.31
2023-05-10T11:34:27.950Z,72.01
2023-05-10T11:35:27.935Z,71.50
2023-05-10T11:36:27.920Z,71.91
2023-05-10T11:37:27.927Z,71.70
2023-05-10T11:38:27.897Z,71.91
2023-05-10T11:39:27.887Z,71.73
2023-05-10T11:40:27.888Z,71.94
2023-05-10T11:41:27.894Z,72.31
2023-05-10T11:42:27.874Z,72.14
2023-05-10T11:43:27.844Z,73.33
2023-05-10T11:44:27.842Z,72.14
2023-05-10T11:45:27.828Z,71.64
2023-05-10T11:46:27.985Z,71.33
2023-05-10T11:47:27.846Z,72.34
2023-05-10T11:48:27.792Z,72.34
2023-05-10T11:49:27.784Z,72.25
2023-05-10T11:50:27.769Z,73.26
2023-05-10T11:51:27.751Z,73.46
2023-05-10T11:52:27.757Z,73.57
2023-05-10T11:53:27.728Z,74.27
2023-05-10T11:54:27.716Z,73.26
2023-05-10T11:55:27.722Z,72.85
2023-05-10T11:56:27.710Z,73.06
2023-05-10T11:57:27.701Z,72.14
2023-05-10T11:58:27.708Z,72.75
2023-05-10T11:59:27.667Z,72.25
2023-05-10T12:00:27.642Z,72.34
2023-05-10T12:01:27.634Z,72.75
2023-05-10T12:02:27.717Z,72.28
2023-05-10T12:03:27.728Z,73.46
2023-05-10T12:04:27.609Z,73.46
2023-05-10T12:05:27.592Z,73.57
2023-05-10T12:06:27.592Z,73.19
2023-05-10T12:07:27.561Z,72.89
2023-05-10T12:08:27.552Z,73.50
2023-05-10T12:09:42.767Z,73.39
2023-05-10T12:10:28.529Z,73.29
2023-05-10T12:11:27.519Z,72.78
2023-05-10T12:12:27.507Z,73.90
2023-05-10T12:13:27.492Z,74.01
2023-05-10T12:14:27.531Z,73.80
2023-05-10T12:15:27.470Z,73.90
2023-05-10T12:16:27.493Z,74.51
2023-05-10T12:17:27.488Z,73.80
2023-05-10T12:18:27.530Z,75.22
2023-05-10T12:19:27.446Z,75.12
2023-05-10T12:20:27.412Z,75.12
2023-05-10T12:21:27.439Z,75.63
2023-05-10T12:22:27.386Z,75.63
2023-05-10T12:23:27.407Z,75.22
2023-05-10T12:24:27.385Z,75.52
2023-05-10T12:25:27.355Z,76.07
2023-05-10T12:26:27.368Z,75.97
2023-05-10T12:27:27.348Z,77.19
2023-05-10T12:28:27.323Z,75.16
2023-05-10T12:29:27.330Z,75.26
2023-05-10T12:30:27.343Z,75.26
2023-05-10T12:31:27.325Z,75.76
2023-05-10T12:32:27.314Z,76.17
2023-05-10T12:33:27.328Z,77.09
2023-05-10T12:34:27.264Z,76.98
2023-05-10T12:35:27.248Z,76.78
2023-05-10T12:36:27.239Z,76.88
2023-05-10T12:37:27.225Z,77.09
2023-05-10T12:38:27.221Z,76.98
2023-05-10T12:39:27.222Z,76.98
2023-05-10T12:40:27.193Z,77.59
2023-05-10T12:41:27.197Z,77.80
2023-05-10T12:42:27.175Z,78.30
2023-05-10T12:43:27.155Z,77.86
2023-05-10T12:44:27.140Z,77.56
2023-05-10T12:45:27.162Z,77.05
2023-05-10T12:46:27.222Z,76.95
2023-05-10T12:47:27.153Z,77.56
2023-05-10T12:48:27.116Z,77.25
2023-05-10T12:49:27.095Z,77.45
2023-05-10T12:50:27.074Z,76.95
2023-05-10T12:51:27.087Z,77.25
2023-05-10T12:52:27.090Z,77.56
2023-05-10T12:53:27.039Z,77.15